.
WxDataArchive / Data Records for 2010-05-23
2010-05-22 May 2010 2010-05-24

Data Records for Sunday, 23 May 2010

Time	Temp	Chill	HIndex	Humid	Dewpt	 Wind 	HiWind	WindDir	Rain 	Barom 
-----	----	-----	------	-----	-----	------	------	-------	-----	----- 
00:00	59.8	59.8	59.8	93	57.8	0	0	---	0.00	30.010 
00:05	59.6	59.6	59.6	94	57.9	0	0	---	0.00	30.010 
00:10	59.6	59.6	59.6	94	57.9	0	0	---	0.00	30.010 
00:15	59.5	59.5	59.5	94	57.8	0	0	---	0.00	30.001 
00:20	59.3	59.3	59.3	94	57.6	0	0	---	0.00	30.001 
00:25	59.2	59.2	59.2	94	57.5	0	0	---	0.00	30.001 
00:30	59.2	59.2	59.2	94	57.5	0	0	---	0.00	30.009 
00:35	59.0	59.0	59.0	94	57.3	0	0	---	0.00	30.009 
00:40	58.9	58.9	58.9	94	57.2	0	0	---	0.00	30.009 
00:45	58.7	58.7	58.7	94	57.0	0	0	---	0.00	30.016 
00:50	58.6	58.6	58.6	94	56.9	0	0	---	0.00	30.016 
00:55	58.6	58.6	58.6	94	56.9	0	0	---	0.00	30.016 
01:00	58.4	58.4	58.4	94	56.7	0	0	---	0.00	30.026 
01:05	58.3	58.3	58.3	94	56.6	0	0	---	0.00	30.026 
01:10	58.1	58.1	58.1	94	56.4	0	0	---	0.00	30.026 
01:15	58.0	58.0	58.0	94	56.3	0	0	---	0.00	30.021 
01:20	57.8	57.8	57.8	94	56.1	0	0	---	0.00	30.021 
01:25	57.6	57.6	57.6	94	55.9	0	0	---	0.00	30.021 
01:30	57.6	57.6	57.6	94	55.9	0	0	---	0.00	30.018 
01:35	57.5	57.5	57.5	94	55.8	0	0	---	0.00	30.018 
01:40	57.3	57.3	57.3	95	55.9	0	0	---	0.00	30.018 
01:45	57.3	57.3	57.3	95	55.9	0	0	---	0.00	30.014 
01:50	57.3	57.3	57.3	95	55.9	0	0	---	0.00	30.014 
01:55	57.3	57.3	57.3	95	55.9	0	0	---	0.00	30.014 
02:00	57.2	57.2	57.2	95	55.8	0	0	---	0.00	30.013 
02:05	57.2	57.2	57.2	95	55.8	0	0	---	0.00	30.013 
02:10	57.0	57.0	57.0	95	55.6	0	0	---	0.00	30.013 
02:15	57.0	57.0	57.0	95	55.6	0	0	---	0.00	30.012 
02:20	56.9	56.9	56.9	95	55.5	0	0	---	0.00	30.012 
02:25	56.9	56.9	56.9	95	55.5	0	0	---	0.00	30.012 
02:30	56.7	56.7	56.7	95	55.3	0	0	---	0.00	30.016 
02:35	56.6	56.6	56.6	95	55.2	0	0	---	0.00	30.016 
02:40	56.6	56.6	56.6	95	55.2	0	0	---	0.00	30.016 
02:45	56.5	56.5	56.5	95	55.1	0	0	---	0.00	30.018 
02:50	56.5	56.5	56.5	95	55.1	0	0	---	0.00	30.018 
02:55	56.5	56.5	56.5	95	55.1	0	0	---	0.00	30.018 
03:00	56.3	56.3	56.3	95	54.9	0	0	---	0.00	30.022 
03:05	56.2	56.2	56.2	95	54.8	0	0	---	0.00	30.022 
03:10	56.0	56.0	56.0	95	54.6	0	0	---	0.00	30.022 
03:15	55.9	55.9	55.9	95	54.5	0	0	---	0.00	30.015 
03:20	55.9	55.9	55.9	95	54.5	0	0	---	0.00	30.015 
03:25	55.7	55.7	55.7	95	54.3	0	0	---	0.00	30.015 
03:30	55.6	55.6	55.6	95	54.2	0	0	---	0.00	30.013 
03:35	55.6	55.6	55.6	95	54.2	0	0	---	0.00	30.013 
03:40	55.6	55.6	55.6	96	54.5	0	0	---	0.00	30.013 
03:45	55.6	55.6	55.6	96	54.5	0	0	---	0.00	30.012 
03:50	55.6	55.6	55.6	96	54.5	0	0	---	0.00	30.012 
03:55	55.6	55.6	55.6	96	54.5	0	0	---	0.00	30.012 
04:00	55.4	55.4	55.4	96	54.3	0	0	---	0.00	30.014 
04:05	55.4	55.4	55.4	96	54.3	0	0	---	0.00	30.014 
04:10	55.6	55.6	55.6	96	54.5	0	1	270	0.00	30.014 
04:15	55.6	55.6	55.6	96	54.5	0	0	---	0.00	30.015 
04:20	55.6	55.6	55.6	96	54.5	0	0	---	0.00	30.015 
04:25	55.6	55.6	55.6	96	54.5	0	0	---	0.00	30.015 
04:30	55.4	55.4	55.4	96	54.3	0	0	---	0.00	30.017 
04:35	55.4	55.4	55.4	96	54.3	0	0	---	0.00	30.017 
04:40	55.4	55.4	55.4	96	54.3	0	0	---	0.00	30.017 
04:45	55.4	55.4	55.4	96	54.3	0	0	---	0.00	30.022 
04:50	55.4	55.4	55.4	96	54.3	0	0	---	0.00	30.022 
04:55	55.4	55.4	55.4	96	54.3	0	0	---	0.00	30.022 
05:00	55.4	55.4	55.4	96	54.3	0	0	---	0.00	30.028 
05:05	55.3	55.3	55.3	96	54.2	0	0	---	0.00	30.028 
05:10	55.3	55.3	55.3	96	54.2	0	0	---	0.00	30.028 
05:15	55.1	55.1	55.1	96	54.0	0	0	---	0.00	30.028 
05:20	55.0	55.0	55.0	96	53.9	0	0	---	0.00	30.028 
05:25	55.0	55.0	55.0	96	53.9	0	0	---	0.00	30.028 
05:30	54.8	54.8	54.8	96	53.7	0	0	---	0.00	30.037 
05:35	54.8	54.8	54.8	96	53.7	0	0	---	0.00	30.037 
05:40	55.0	55.0	55.0	96	53.9	0	0	---	0.00	30.037 
05:45	55.0	55.0	55.0	96	53.9	0	0	---	0.00	30.042 
05:50	55.0	55.0	55.0	96	53.9	0	0	---	0.00	30.042 
05:55	55.1	55.1	55.1	96	54.0	0	0	---	0.00	30.042 
06:00	55.1	55.1	55.1	96	54.0	0	0	---	0.00	30.047 
06:05	55.0	55.0	55.0	96	53.9	0	0	---	0.00	30.047 
06:10	55.0	55.0	55.0	96	53.9	0	0	---	0.00	30.047 
06:15	55.0	55.0	55.0	96	53.9	0	0	---	0.00	30.056 
06:20	55.0	55.0	55.0	96	53.9	0	0	---	0.00	30.056 
06:25	55.0	55.0	55.0	96	53.9	0	0	---	0.00	30.056 
06:30	55.0	55.0	55.0	96	53.9	0	0	---	0.00	30.061 
06:35	55.0	55.0	55.0	96	53.9	0	0	---	0.00	30.061 
06:40	54.8	54.8	54.8	96	53.7	0	0	---	0.00	30.061 
06:45	54.8	54.8	54.8	96	53.7	0	0	---	0.00	30.070 
06:50	55.0	55.0	55.0	96	53.9	0	0	---	0.00	30.070 
06:55	55.0	55.0	55.0	96	53.9	0	0	---	0.00	30.070 
07:00	55.1	55.1	55.1	96	54.0	0	0	---	0.00	30.079 
07:05	55.4	55.4	55.4	96	54.3	0	0	---	0.00	30.079 
07:10	55.7	55.7	55.7	97	54.9	0	0	---	0.00	30.079 
07:15	56.5	56.5	56.5	97	55.7	0	0	---	0.00	30.085 
07:20	57.2	57.2	57.2	97	56.4	0	0	---	0.00	30.085 
07:25	57.8	57.8	57.8	97	57.0	0	1	270	0.00	30.085 
07:30	58.4	58.4	58.4	97	57.5	0	1	270	0.00	30.090 
07:35	59.0	59.0	59.0	97	58.1	0	0	---	0.00	30.090 
07:40	59.6	59.6	59.6	97	58.7	0	0	---	0.00	30.090 
07:45	60.1	60.1	60.1	97	59.2	0	0	---	0.00	30.092 
07:50	60.5	60.5	60.5	97	59.6	0	0	---	0.00	30.092 
07:55	60.9	60.9	60.9	97	60.0	0	2	270	0.00	30.092 
08:00	60.9	60.9	60.9	96	59.7	1	2	270	0.00	30.099 
08:05	61.2	61.2	61.2	96	60.0	0	1	270	0.00	30.099 
08:10	61.8	61.8	61.8	96	60.6	0	2	270	0.00	30.099 
08:15	62.3	62.3	62.3	96	61.1	1	2	270	0.00	30.103 
08:20	62.7	62.7	62.7	95	61.2	0	3	270	0.00	30.103 
08:25	63.2	63.2	63.2	94	61.4	1	3	112	0.00	30.103 
08:30	63.7	63.7	63.7	93	61.6	1	2	112	0.00	30.102 
08:35	64.0	64.0	64.0	92	61.6	1	3	112	0.00	30.102 
08:40	64.5	64.5	64.5	91	61.8	1	3	112	0.00	30.102 
08:45	65.2	65.2	65.2	90	62.2	0	2	112	0.00	30.107 
08:50	65.8	65.8	65.8	88	62.1	0	1	112	0.00	30.107 
08:55	66.6	66.6	66.6	87	62.6	0	0	---	0.00	30.107 
09:00	67.4	67.4	67.4	85	62.7	0	0	---	0.00	30.108 
09:05	68.3	68.3	68.3	82	62.6	0	0	---	0.00	30.108 
09:10	68.9	68.9	68.9	81	62.8	0	2	112	0.00	30.108 
09:15	69.8	69.8	69.8	79	63.0	0	0	---	0.00	30.114 
09:20	70.3	70.3	70.3	77	62.7	0	4	112	0.00	30.114 
09:25	70.8	70.8	70.8	75	62.5	1	6	112	0.00	30.114 
09:30	71.1	71.1	71.1	75	62.8	1	4	112	0.00	30.111 
09:35	71.8	71.8	71.8	75	63.4	0	2	112	0.00	30.111 
09:40	72.1	72.1	72.1	73	63.0	1	4	112	0.00	30.111 
09:45	72.7	72.7	72.7	73	63.5	1	4	112	0.00	30.111 
09:50	73.2	73.2	73.2	71	63.2	1	3	112	0.00	30.111 
09:55	73.7	73.7	73.7	70	63.3	1	2	112	0.00	30.111 
10:00	74.4	74.4	74.4	69	63.5	1	3	112	0.00	30.111 
10:05	74.7	74.7	74.7	69	63.8	1	3	112	0.00	30.111 
10:10	75.1	75.1	77.0	67	63.4	1	4	90	0.00	30.111 
10:15	75.3	75.3	77.2	66	63.1	1	4	90	0.00	30.107 
10:20	75.8	75.8	77.7	66	63.6	0	2	90	0.00	30.107 
10:25	76.3	76.3	78.1	67	64.5	0	2	90	0.00	30.107 
10:30	76.7	76.7	78.5	63	63.1	1	3	90	0.00	30.104 
10:35	77.0	77.0	78.8	63	63.4	1	2	90	0.00	30.104 
10:40	77.2	77.2	79.0	63	63.6	1	3	90	0.00	30.104 
10:45	77.4	77.4	79.2	62	63.3	1	3	90	0.00	30.105 
10:50	77.7	77.7	79.4	62	63.6	1	3	112	0.00	30.105 
10:55	77.6	77.6	79.4	62	63.5	2	5	90	0.00	30.105 
11:00	77.2	77.2	79.0	62	63.2	1	4	90	0.00	30.104 
11:05	77.4	77.4	79.2	62	63.3	1	5	112	0.00	30.104 
11:10	77.4	77.4	79.2	62	63.3	1	3	112	0.00	30.104 
11:15	77.6	77.6	79.4	62	63.5	1	4	112	0.00	30.103 
11:20	77.9	77.9	79.6	61	63.3	1	4	112	0.00	30.103 
11:25	78.3	78.3	80.1	62	64.2	1	5	90	0.00	30.103 
11:30	78.6	78.6	80.3	60	63.5	1	3	90	0.00	30.099 
11:35	78.8	78.8	80.5	60	63.7	2	4	90	0.00	30.099 
11:40	78.8	78.8	80.5	61	64.2	2	4	90	0.00	30.099 
11:45	78.6	78.6	80.3	60	63.5	2	5	112	0.00	30.098 
11:50	78.5	78.5	80.2	60	63.4	1	4	112	0.00	30.098 
11:55	78.8	78.8	80.5	60	63.7	1	3	90	0.00	30.098 
12:00	79.0	79.0	80.7	60	63.9	2	5	112	0.00	30.100 
12:05	79.2	79.2	80.9	60	64.1	1	3	112	0.00	30.100 
12:10	79.4	79.4	80.9	58	63.3	2	4	112	0.00	30.100 
12:15	79.2	79.2	80.8	59	63.6	2	5	90	0.00	30.098 
12:20	79.4	79.4	81.1	60	64.3	1	4	90	0.00	30.098 
12:25	79.6	79.6	81.3	59	64.0	1	3	90	0.00	30.098 
12:30	79.9	79.9	81.7	60	64.7	1	2	22	0.00	30.096 
12:35	80.7	80.7	82.4	58	64.5	0	2	22	0.00	30.096 
12:40	81.1	81.1	82.8	57	64.4	1	4	90	0.00	30.096 
12:45	81.2	81.2	82.9	57	64.5	2	5	90	0.00	30.097 
12:50	81.1	81.1	82.9	58	64.9	2	3	90	0.00	30.097 
12:55	81.1	81.1	83.0	59	65.4	1	3	90	0.00	30.097 
13:00	81.1	81.1	83.0	59	65.4	1	3	112	0.00	30.096 
13:05	81.1	81.1	82.9	58	64.9	2	3	112	0.00	30.096 
13:10	80.9	80.9	82.7	58	64.7	1	4	292	0.00	30.096 
13:15	80.5	80.5	81.9	56	63.3	1	3	90	0.00	30.095 
13:20	80.3	80.3	81.9	58	64.2	0	2	112	0.00	30.095 
13:25	80.1	80.1	81.7	58	64.0	1	3	68	0.00	30.095 
13:30	80.3	80.3	81.9	58	64.2	1	6	90	0.00	30.087 
13:35	80.9	80.9	82.5	57	64.2	1	4	90	0.00	30.087 
13:40	81.4	81.4	83.0	56	64.2	1	3	90	0.00	30.087 
13:45	81.4	81.4	83.1	57	64.7	1	4	90	0.00	30.083 
13:50	81.4	81.4	83.1	57	64.7	2	3	90	0.00	30.083 
13:55	81.4	81.4	83.1	57	64.7	2	5	90	0.00	30.083 
14:00	81.6	81.6	83.5	58	65.4	1	3	68	0.00	30.081 
14:05	82.0	82.0	84.1	58	65.7	1	3	90	0.00	30.081 
14:10	82.4	82.4	84.4	57	65.6	1	3	135	0.00	30.081 
14:15	82.6	82.6	84.3	55	64.8	1	5	68	0.00	30.080 
14:20	82.8	82.8	84.6	55	65.0	1	3	112	0.00	30.080 
14:25	83.0	83.0	85.1	56	65.7	1	5	90	0.00	30.080 
14:30	83.0	83.0	84.9	55	65.1	1	4	112	0.00	30.073 
14:35	83.2	83.2	85.1	55	65.3	0	4	292	0.00	30.073 
14:40	83.2	83.2	85.1	55	65.3	1	4	292	0.00	30.073 
14:45	83.2	83.2	85.8	58	66.9	1	4	270	0.00	30.067 
14:50	83.6	83.6	85.5	54	65.2	1	4	112	0.00	30.067 
14:55	83.8	83.8	85.7	54	65.3	2	5	90	0.00	30.067 
15:00	83.8	83.8	85.7	54	65.3	2	6	90	0.00	30.064 
15:05	83.6	83.6	86.1	57	66.7	2	4	112	0.00	30.064 
15:10	83.6	83.6	86.6	59	67.7	1	3	112	0.00	30.064 
15:15	84.0	84.0	86.5	56	66.6	1	3	270	0.00	30.065 
15:20	84.0	84.0	86.3	55	66.1	2	6	248	0.00	30.065 
15:25	84.0	84.0	87.0	58	67.6	1	5	68	0.00	30.065 
15:30	84.1	84.1	86.7	56	66.7	1	4	112	0.00	30.064 
15:35	84.3	84.3	87.0	56	66.9	1	4	338	0.00	30.064 
15:40	84.3	84.3	87.0	56	66.9	1	4	292	0.00	30.064 
15:45	84.5	84.5	86.7	54	66.0	1	4	292	0.00	30.062 
15:50	84.3	84.3	86.2	53	65.3	1	4	45	0.00	30.062 
15:55	84.3	84.3	86.7	55	66.3	2	6	90	0.00	30.062 
16:00	84.3	84.3	86.7	55	66.3	1	4	90	0.00	30.062 
16:05	84.3	84.3	86.5	54	65.8	2	4	90	0.00	30.062 
16:10	84.5	84.5	87.0	55	66.5	1	5	90	0.00	30.062 
16:15	84.5	84.5	86.7	54	66.0	1	3	68	0.00	30.059 
16:20	84.5	84.5	87.8	58	68.1	1	3	68	0.00	30.059 
16:25	84.1	84.1	86.4	55	66.2	2	4	90	0.00	30.059 
16:30	84.5	84.5	87.8	58	68.1	0	2	90	0.00	30.053 
16:35	84.5	84.5	87.3	56	67.0	1	2	90	0.00	30.053 
16:40	84.3	84.3	86.7	55	66.3	1	3	90	0.00	30.053 
16:45	84.3	84.3	87.0	56	66.9	1	3	315	0.00	30.053 
16:50	84.0	84.0	87.0	58	67.6	1	3	315	0.00	30.053 
16:55	84.1	84.1	86.4	55	66.2	1	4	90	0.00	30.053 
17:00	84.3	84.3	86.7	55	66.3	1	2	90	0.00	30.052 
17:05	84.7	84.7	88.1	58	68.3	0	2	90	0.00	30.052 
17:10	85.1	85.1	87.9	55	67.1	1	3	112	0.00	30.052 
17:15	84.9	84.9	87.9	56	67.4	1	3	292	0.00	30.051 
17:20	84.3	84.3	87.0	56	66.9	1	2	292	0.00	30.051 
17:25	84.3	84.3	87.5	58	67.9	1	3	292	0.00	30.051 
17:30	84.1	84.1	86.9	57	67.2	1	2	45	0.00	30.052 
17:35	84.0	84.0	86.3	55	66.1	1	2	45	0.00	30.052 
17:40	84.1	84.1	86.9	57	67.2	0	4	45	0.00	30.052 
17:45	84.3	84.3	87.0	56	66.9	1	4	112	0.00	30.053 
17:50	84.0	84.0	86.5	56	66.6	1	3	112	0.00	30.053 
17:55	84.1	84.1	87.2	58	67.7	0	2	45	0.00	30.053 
18:00	84.3	84.3	87.5	58	67.9	0	3	45	0.00	30.051 
18:05	84.3	84.3	87.2	57	67.4	1	3	45	0.00	30.051 
18:10	84.3	84.3	87.0	56	66.9	1	4	90	0.00	30.051 
18:15	84.0	84.0	86.7	57	67.1	1	6	90	0.00	30.052 
18:20	83.8	83.8	86.7	58	67.4	0	4	270	0.00	30.052 
18:25	83.4	83.4	86.3	59	67.5	0	2	112	0.00	30.052 
18:30	83.2	83.2	86.0	59	67.4	0	2	292	0.00	30.051 
18:35	83.0	83.0	85.5	58	66.7	0	2	292	0.00	30.051 
18:40	82.8	82.8	85.4	59	67.0	0	1	292	0.00	30.051 
18:45	82.8	82.8	85.6	60	67.5	0	2	292	0.00	30.052 
18:50	82.6	82.6	84.9	58	66.3	1	3	90	0.00	30.052 
18:55	82.6	82.6	85.3	60	67.3	0	2	315	0.00	30.052 
19:00	82.6	82.6	85.3	60	67.3	0	1	315	0.00	30.051 
19:05	82.4	82.4	84.8	59	66.6	0	1	315	0.00	30.051 
19:10	82.4	82.4	84.6	58	66.1	1	4	315	0.00	30.051 
19:15	82.6	82.6	85.1	59	66.8	0	3	68	0.00	30.045 
19:20	82.6	82.6	85.1	59	66.8	1	2	68	0.00	30.045 
19:25	82.6	82.6	85.1	59	66.8	0	3	68	0.00	30.045 
19:30	82.6	82.6	85.1	59	66.8	0	2	68	0.00	30.044 
19:35	82.4	82.4	84.8	59	66.6	0	2	68	0.00	30.044 
19:40	82.4	82.4	85.2	61	67.6	0	1	68	0.00	30.044 
19:45	82.2	82.2	84.9	61	67.4	0	3	68	0.00	30.046 
19:50	82.2	82.2	84.7	60	66.9	0	2	68	0.00	30.046 
19:55	82.0	82.0	84.6	61	67.2	0	2	68	0.00	30.046 
20:00	82.0	82.0	84.8	62	67.7	0	2	68	0.00	30.047 
20:05	81.8	81.8	84.5	62	67.5	0	0	---	0.00	30.047 
20:10	81.6	81.6	84.2	62	67.3	0	0	---	0.00	30.047 
20:15	81.4	81.4	84.1	63	67.6	0	0	---	0.00	30.044 
20:20	81.1	81.1	83.6	63	67.3	0	0	---	0.00	30.044 
20:25	80.9	80.9	83.4	63	67.1	0	0	---	0.00	30.044 
20:30	80.7	80.7	83.2	64	67.4	0	0	---	0.00	30.048 
20:35	80.3	80.3	82.7	64	67.0	0	0	---	0.00	30.048 
20:40	80.1	80.1	82.5	65	67.2	0	0	---	0.00	30.048 
20:45	79.9	79.9	82.2	65	67.1	0	0	---	0.00	30.057 
20:50	79.6	79.6	81.9	66	67.2	0	0	---	0.00	30.057 
20:55	79.4	79.4	81.6	66	67.0	0	0	---	0.00	30.057 
21:00	79.0	79.0	81.2	67	67.1	0	0	---	0.00	30.058 
21:05	78.8	78.8	80.9	67	66.9	0	0	---	0.00	30.058 
21:10	78.6	78.6	80.7	68	67.1	0	0	---	0.00	30.058 
21:15	78.3	78.3	80.3	68	66.8	0	0	---	0.00	30.054 
21:20	78.1	78.1	80.1	69	67.1	0	0	---	0.00	30.054 
21:25	77.7	77.7	79.6	69	66.7	0	0	---	0.00	30.054 
21:30	77.4	77.4	79.3	70	66.8	0	0	---	0.00	30.056 
21:35	77.0	77.0	78.8	70	66.4	0	0	---	0.00	30.056 
21:40	76.7	76.7	78.4	72	67.0	0	0	---	0.00	30.056 
21:45	76.5	76.5	78.1	73	67.2	0	0	---	0.00	30.058 
21:50	76.0	76.0	77.4	74	67.1	0	0	---	0.00	30.058 
21:55	75.6	75.6	77.0	74	66.7	0	0	---	0.00	30.058 
22:00	75.3	75.3	76.5	75	66.8	0	0	---	0.00	30.062 
22:05	74.9	74.9	74.9	76	66.8	0	0	---	0.00	30.062 
22:10	74.6	74.6	74.6	77	66.9	0	0	---	0.00	30.062 
22:15	74.4	74.4	74.4	78	67.1	0	0	---	0.00	30.067 
22:20	74.0	74.0	74.0	78	66.7	0	0	---	0.00	30.067 
22:25	73.9	73.9	73.9	80	67.3	0	0	---	0.00	30.067 
22:30	73.5	73.5	73.5	81	67.3	0	0	---	0.00	30.070 
22:35	73.3	73.3	73.3	82	67.5	0	0	---	0.00	30.070 
22:40	73.2	73.2	73.2	82	67.4	0	0	---	0.00	30.070 
22:45	72.8	72.8	72.8	83	67.3	0	0	---	0.00	30.072 
22:50	72.7	72.7	72.7	84	67.6	0	0	---	0.00	30.072 
22:55	72.3	72.3	72.3	84	67.2	0	0	---	0.00	30.072 
23:00	72.1	72.1	72.1	84	67.0	0	0	---	0.00	30.075 
23:05	72.1	72.1	72.1	84	67.0	0	0	---	0.00	30.075 
23:10	72.0	72.0	72.0	85	67.2	0	0	---	0.00	30.075 
23:15	71.8	71.8	71.8	85	67.0	0	0	---	0.00	30.075 
23:20	71.8	71.8	71.8	86	67.4	0	0	---	0.00	30.075 
23:25	71.6	71.6	71.6	86	67.2	0	0	---	0.00	30.075 
23:30	71.5	71.5	71.5	86	67.1	0	0	---	0.00	30.079 
23:35	71.3	71.3	71.3	86	66.9	0	0	---	0.00	30.079 
23:40	71.1	71.1	71.1	86	66.7	0	0	---	0.00	30.079 
23:45	70.9	70.9	70.9	87	66.8	0	0	---	0.00	30.080 
23:50	70.8	70.8	70.8	87	66.7	0	0	---	0.00	30.080 
23:55	70.6	70.6	70.6	88	66.9	0	0	---	0.00	30.080 

CoCoRaHS
IN-AL-39
A2 Web Hosting
Creative Commons License
GoDaddy
search engine by freefind advanced

loaded 2018-11-20 15:35:13 • last modified 2010-11-18 10:43:29
Privacy PolicyDisclaimer
• wx.awcolley.com is powered by PmWiki v.2002016 •
• all content (unless otherwise noted) © 2018 A W Colley